Capitol Logistics 310


CYHZ
Robert L. Stanfield International Airport
Halifax, CA
KRFD
Chicago/Rockford International Airport
Rockford, US

Route Details

Aircraft Information
Primary: Boeing 767-300BDSF
Backup: Not Available
Route Data
Distance: 1123nm
Sched. Duration: 2h 29m
Avg. Duration: 3h 11m (+82m)
Times Flown: 11
Recm'd Route: YSJ DERDO YUL Q824 LETAK Q848 SLLAP BAE
Planned Altitude: 34,000ft
Origin Wx: CYHZ 231800Z 21005KT 12SM -SN BKN010 OVC027 M03/M04 A2952 RMK SC6SC2 SLP005
Dest. Wx: KRFD 231754Z 18008KT 10SM FEW150 BKN250 M07/M17 A3037 RMK AO2 SLP301 4/004 933014 I6000 T10721172 11067 21167 58002
Notes: LOBSTER KING

Financial History
Total Freight: 1,243,281lbs
Average Load: 113,026lbs/flt
Fuel Used: 392,685lbs
Avg. Fuel Used: 35,699lbs/flt
Fuel Expense: $314,148
Avg. Fuel Expense: $28,559
Avg. Fuel Cost: $0.80/lbs
Total Gross Income: $1,988,072
Pilot Pay: $2,479
Total Expenses: $215,284
Total Revenue: $1,449,625
Average Revenue: $180,733.85